Quick Links (Output Below):   Max & Min Temps   /   Climate Reports   /   Zone Forecasts
River Forecasts   /   Forestry Forecasts   /   Aviation Forecasts   /   Radars   /   Features

Terminal Aerodrome Forecast (Arkadelphia)

Pick a Site:
Arkadelphia | El Dorado | Fayetteville | Fort Smith | Harrison | Highfill | Hot Springs | Jonesboro
Little Rock | Monticello | Mountain Home | Pine Bluff | Texarkana
 Forecast 

KADF 311720Z 3118/0118 09005KT P6SM VCSH OVC025
      TEMPO 3118/3122 2SM -RA BR BKN005 OVC015
     FM010300 09003KT P6SM VCSH SCT015 OVC040
      TEMPO 0108/0112 1/2SM FG OVC015=


 Latest METARs (Observations) 
How to Decode METARs
19Z KADF 311856Z AUTO 00000KT 2SM RA BR SCT002 BKN017 OVC060 21/19
         A3009 RMK AO2 T02110194 CIG 012V024 P0009 SLP202
         
18Z KADF 311756Z AUTO VRB03KT 4SM -RA BR SCT002 SCT011 BKN035 22/21
         A3010 RMK AO2 51001 60023 T02160205 10216 20194 BKN V SCT
         P0003 SLP204
         
17Z KADF 311656Z AUTO 00000KT 4SM -RA BR SCT005 BKN030 OVC049 22/21
         A3009 RMK AO2 T02160205 BKN V SCT P0005 SLP203
         
16Z KADF 311556Z AUTO VRB03KT 5SM -RA BR FEW006 SCT031 BKN042 22/21
         A3010 RMK AO2 T02160205 BKN V SCT RAB48 P0000 SLP204
         
15Z KADF 311456Z AUTO 06003KT 10SM CLR 21/20 A3009 RMK AO2 58002 60015
         T02050200 RAE23 P0001 SLP202
         
14Z KADF 311356Z AUTO 04004KT 8SM -RA FEW060 20/19 A3009 RMK AO2
         T02000194 RAE28B54 P0001 SLP203
         
13Z KADF 311256Z AUTO 03004KT 4SM RA BR BKN003 BKN018 OVC055 19/19
         A3010 RMK AO2 T01940194 P0013 SLP206
         
12Z KADF 311156Z AUTO 03003KT 3SM RA BR BKN003 OVC007 19/19 A3009 RMK
         AO2 51013 60038 70045 T01940194 10205 20194 OVC V BKN P0014
         SLP203
         
11Z KADF 311056Z AUTO 04004KT 3SM RA BR BKN003 BKN030 OVC065 19/19
         A3009 RMK AO2 T01940188 P0015 SLP201
         
10Z KADF 310956Z AUTO VRB03KT 7SM -RA SCT003 SCT070 19/19 A3007 RMK
         AO2 T01940188 P0004 SLP195
         
***** Today's Observations (Above) *****


Back to Main Page
http://www.srh.noaa.gov/lzk/qfcst.php

USA.gov is the U.S. government's official web portal to all federal, state and local government web resources and services.